Messwerte Bukoba

Temperatur

Temperatur
°C
1566414000 22.00 22.00 18
1566417600 23.00 23.00 18
1566421200 0.00 0.00 18
1566424800 1.00 1.00 18
1566428400 2.00 2.00
1566432000 3.00 3.00
1566435600 4.00 4.00 18
1566439200 5.00 5.00
1566442800 6.00 6.00 17
1566446400 7.00 7.00 17
1566450000 8.00 8.00 18
1566453600 9.00 9.00 19
1566457200 10.00 10.00 21
1566460800 11.00 11.00 20
1566464400 12.00 12.00 24
1566468000 13.00 13.00 24
1566471600 14.00 14.00 24
1566475200 15.00 15.00 25
1566478800 16.00 16.00 26
1566482400 17.00 17.00 25
1566486000 18.00 18.00 24
1566489600 19.00 19.00 23
1566493200 20.00 20.00 21
1566496800 21.00 21.00 20

Aktuellste Messwerte

Wettercharakter
Wetter: meist klar
Temperatur
20 °C
Feuchtigkeit
94 %
Wind
0 km/h, -
Luftdruck
1017 hPa
Messzeit: 22. August 2019, 21.00Datenquelle: METAR

Weitere Messstationen in der Nähe

Messstation Temperatur Entfernung
Entebbe 22 °C 169 km
Mwanza 24 °C 176 km
Kigali 25 °C 202 km
Musoma 24 °C 221 km
Kisumu - 353 km
Tabora 26 °C 431 km
Eldoret 16 °C 436 km

Wind

Windrichtung Böen Mittelwind
° km/h km/h
1566414000 22.00 21.00 - 22.00 0
1566417600 23.00 22.00 - 23.00 300° 10
1566421200 0.00 23.00 - 0.00 280° 10
1566424800 1.00 0.00 - 1.00 0
1566428400 2.00 1.00 - 2.00
1566432000 3.00 2.00 - 3.00
1566435600 4.00 3.00 - 4.00 0
1566439200 5.00 4.00 - 5.00
1566442800 6.00 5.00 - 6.00 0
1566446400 7.00 6.00 - 7.00 0
1566450000 8.00 7.00 - 8.00 0
1566453600 9.00 8.00 - 9.00 0
1566457200 10.00 9.00 - 10.00 0
1566460800 11.00 10.00 - 11.00 0
1566464400 12.00 11.00 - 12.00 170° 10
1566468000 13.00 12.00 - 13.00 150° 10
1566471600 14.00 13.00 - 14.00 160° 20
1566475200 15.00 14.00 - 15.00 180° 5
1566478800 16.00 15.00 - 16.00 150° 20
1566482400 17.00 16.00 - 17.00 110° 5
1566486000 18.00 17.00 - 18.00 0
1566489600 19.00 18.00 - 19.00 0
1566493200 20.00 19.00 - 20.00 0
1566496800 21.00 20.00 - 21.00 0

Ihre Wetterstation

Fehlt Ihre Wetterstation auf unserem Portal?

Schreiben Sie an network@meteonews.ch